Time;durP1;ratioP1;P1;durP2;ratioP2;P2;SDS_P1;SDS_P2;PMS_P1;PMS_P2;Temp;Humidity;BMP_temperature;BMP_pressure;BME280_temperature;BME280_humidity;BME280_pressure;Samples;Min_cycle;Max_cycle;Signal;HPM_P1;HPM_P2
2022/07/06 06:01:09;;;;;;;3.93;2.53;;;;;;;;;;10582424;27;20407;-82
2022/07/06 06:06:10;;;;;;;2.67;1.55;;;;;;;;;;10583320;28;20032;-82
2022/07/06 06:11:11;;;;;;;3.20;1.50;;;;;;;;;;10581992;28;20047;-82
2022/07/06 06:16:13;;;;;;;3.25;1.55;;;;;;;;;;10580333;28;20392;-80
2022/07/06 06:21:14;;;;;;;2.55;1.27;;;;;;;;;;10579781;28;20027;-80
2022/07/06 06:26:15;;;;;;;2.72;1.20;;;;;;;;;;10580532;28;20027;-78
2022/07/06 06:31:16;;;;;;;4.53;1.30;;;;;;;;;;10580000;28;20496;-80
2022/07/06 06:36:17;;;;;;;3.92;1.48;;;;;;;;;;10580016;28;20111;-80
2022/07/06 06:41:20;;;;;;;3.67;1.50;;;;;;;;;;10577346;28;20028;-80
2022/07/06 06:46:21;;;;;;;3.60;1.40;;;;;;;;;;10575973;28;20111;-82
2022/07/06 06:51:22;;;;;;;3.35;1.40;;;;;;;;;;10576308;28;20122;-83
2022/07/06 06:56:23;;;;;;;12.07;8.85;;;;;;;;;;10576471;28;20039;-82
2022/07/06 07:01:24;;;;;;;5.25;3.53;;;;;;;;;;10577933;28;20028;-82
2022/07/06 07:06:25;;;;;;;3.08;1.90;;;;;;;;;;10576602;28;20445;-79
2022/07/06 07:11:26;;;;;;;3.70;1.65;;;;;;;;;;10555077;28;20393;-81
2022/07/06 07:16:28;;;;;;;3.58;1.63;;;;;;;;;;10554632;28;20382;-83
2022/07/06 07:21:29;;;;;;;2.95;1.40;;;;;;;;;;10559163;28;20036;-81
2022/07/06 07:26:30;;;;;;;2.03;1.20;;;;;;;;;;10561697;28;20094;-83
2022/07/06 07:31:31;;;;;;;1.65;0.98;;;;;;;;;;10562415;28;20470;-81
2022/07/06 07:36:32;;;;;;;3.25;1.08;;;;;;;;;;10547611;28;20073;-81
2022/07/06 07:41:33;;;;;;;2.85;1.10;;;;;;;;;;10549143;28;20135;-82
2022/07/06 07:46:34;;;;;;;4.07;1.15;;;;;;;;;;10549737;28;20024;-81
2022/07/06 07:51:35;;;;;;;2.60;1.20;;;;;;;;;;10556806;28;20366;-81
2022/07/06 07:56:36;;;;;;;2.15;1.10;;;;;;;;;;10552621;28;20123;-81
2022/07/06 08:01:37;;;;;;;3.63;1.42;;;;;;;;;;10556683;28;20051;-81
2022/07/06 08:06:38;;;;;;;3.70;1.88;;;;;;;;;;10555766;28;20494;-81
2022/07/06 08:11:39;;;;;;;5.35;1.60;;;;;;;;;;10557116;28;20020;-81
2022/07/06 08:16:41;;;;;;;2.17;1.20;;;;;;;;;;10562711;28;20491;-84
2022/07/06 08:21:42;;;;;;;2.00;1.10;;;;;;;;;;10563182;28;20024;-81
2022/07/06 08:26:43;;;;;;;2.30;0.93;;;;;;;;;;10564010;28;20028;-82
2022/07/06 08:31:44;;;;;;;3.80;1.50;;;;;;;;;;10556459;28;20045;-81
2022/07/06 08:36:45;;;;;;;9.85;1.70;;;;;;;;;;10553106;28;20024;-82
2022/07/06 08:41:48;;;;;;;5.05;1.40;;;;;;;;;;10559475;28;20031;-81
2022/07/06 08:46:49;;;;;;;3.47;1.33;;;;;;;;;;10553821;28;20031;-83
2022/07/06 08:51:52;;;;;;;2.72;1.17;;;;;;;;;;10557215;28;20053;-83
2022/07/06 08:56:53;;;;;;;2.60;1.10;;;;;;;;;;10560508;28;20040;-83
2022/07/06 09:01:56;;;;;;;2.08;1.00;;;;;;;;;;10570087;28;20051;-82
2022/07/06 09:06:57;;;;;;;7.97;5.60;;;;;;;;;;10553128;28;20063;-83
2022/07/06 09:11:59;;;;;;;5.70;3.00;;;;;;;;;;10555898;28;20111;-82
2022/07/06 09:17:05;;;;;;;4.80;2.53;;;;;;;;;;10554214;28;20083;-82
2022/07/06 09:22:06;;;;;;;2.70;1.58;;;;;;;;;;10551737;28;20031;-82
2022/07/06 09:27:16;;;;;;;2.88;1.50;;;;;;;;;;10551414;28;20028;-82
2022/07/06 09:32:20;;;;;;;5.68;1.75;;;;;;;;;;10562499;28;20046;-82
2022/07/06 09:37:23;;;;;;;3.75;1.50;;;;;;;;;;10562073;28;20028;-82
2022/07/06 09:42:27;;;;;;;3.25;1.80;;;;;;;;;;10561167;28;20032;-82
2022/07/06 09:47:28;;;;;;;3.38;1.88;;;;;;;;;;10561990;28;20081;-83
2022/07/06 09:52:34;;;;;;;3.90;1.60;;;;;;;;;;10553823;28;20093;-82
2022/07/06 09:57:35;;;;;;;3.28;1.70;;;;;;;;;;10552543;28;20036;-84
2022/07/06 10:02:36;;;;;;;3.33;1.80;;;;;;;;;;10556151;28;20059;-82
2022/07/06 10:07:38;;;;;;;3.13;1.38;;;;;;;;;;10562585;28;20028;-82
2022/07/06 10:12:41;;;;;;;2.72;1.20;;;;;;;;;;10517059;22;20053;-84
2022/07/06 10:17:42;;;;;;;3.85;1.40;;;;;;;;;;10427992;28;20029;-84
2022/07/06 10:22:43;;;;;;;2.65;1.30;;;;;;;;;;10426805;28;20109;-83
2022/07/06 10:27:46;;;;;;;3.38;1.70;;;;;;;;;;10426216;28;20076;-84
2022/07/06 10:32:50;;;;;;;2.33;1.20;;;;;;;;;;10424838;28;20025;-84
2022/07/06 10:38:04;;;;;;;3.30;1.67;;;;;;;;;;10433920;28;20060;-80
2022/07/06 10:43:05;;;;;;;2.80;1.20;;;;;;;;;;10425409;28;20025;-83
2022/07/06 10:48:15;;;;;;;2.67;1.38;;;;;;;;;;10430010;28;20144;-83
2022/07/06 10:53:17;;;;;;;3.30;1.40;;;;;;;;;;10432163;28;20052;-84
2022/07/06 10:58:34;;;;;;;2.33;0.90;;;;;;;;;;10433323;28;20084;-84
2022/07/06 11:03:47;;;;;;;9.00;7.05;;;;;;;;;;10432503;28;20033;-84
2022/07/06 11:08:54;;;;;;;4.40;1.85;;;;;;;;;;10431636;28;20021;-84
2022/07/06 11:13:55;;;;;;;3.78;2.65;;;;;;;;;;10428940;28;20040;-86
2022/07/06 11:19:10;;;;;;;3.13;1.90;;;;;;;;;;10430645;28;20033;-86
2022/07/06 11:24:16;;;;;;;3.30;1.80;;;;;;;;;;10431524;28;20033;-86
2022/07/06 11:29:28;;;;;;;2.70;1.67;;;;;;;;;;10423217;28;20337;-87
2022/07/06 11:34:29;;;;;;;18.73;14.05;;;;;;;;;;10427764;28;20506;-86
2022/07/06 11:39:32;;;;;;;4.47;2.40;;;;;;;;;;10432758;28;20025;-86
2022/07/06 11:44:37;;;;;;;3.22;1.85;;;;;;;;;;10424638;28;20083;-86
2022/07/06 11:50:07;;;;;;;4.07;2.80;;;;;;;;;;10424736;28;20036;-84
2022/07/06 11:55:08;;;;;;;;;;;;;;;;;;10429111;28;20025;-84
2022/07/06 12:00:13;;;;;;;2.80;1.80;;;;;;;;;;10427985;28;19905;-84
2022/07/06 12:05:30;;;;;;;2.45;1.60;;;;;;;;;;10429859;28;20474;-84
2022/07/06 12:10:37;;;;;;;2.42;1.10;;;;;;;;;;10425201;28;20135;-86
2022/07/06 12:21:23;;;;;;;1.60;0.80;;;;;;;;;;10429027;28;20422;-85
2022/07/06 12:26:25;;;;;;;3.03;1.23;;;;;;;;;;10425776;28;20068;-84
2022/07/06 12:31:35;;;;;;;3.38;2.63;;;;;;;;;;10439949;28;20037;-84
2022/07/06 12:36:49;;;;;;;2.97;0.90;;;;;;;;;;10426076;28;20118;-84
2022/07/06 12:41:52;;;;;;;1.65;1.10;;;;;;;;;;10422615;28;20101;-85
2022/07/06 12:47:12;;;;;;;1.67;1.00;;;;;;;;;;10420159;28;20112;-85
2022/07/06 12:52:21;;;;;;;1.73;0.88;;;;;;;;;;10426722;28;20586;-84
2022/07/06 12:57:25;;;;;;;2.60;1.52;;;;;;;;;;10426036;28;20051;-84
2022/07/06 13:02:44;;;;;;;1.15;0.90;;;;;;;;;;10425169;28;20164;-85
2022/07/06 13:07:46;;;;;;;1.92;0.90;;;;;;;;;;10436136;28;20029;-84
2022/07/06 13:38:43;;;;;;;2.03;1.30;;;;;;;;;;12358338;22;20045;-83
2022/07/06 13:43:49;;;;;;;1.98;1.02;;;;;;;;;;10714974;22;20054;-83
2022/07/06 13:49:09;;;;;;;1.90;1.27;;;;;;;;;;10446702;28;20388;-84
2022/07/06 14:16:58;;;;;;;2.58;1.40;;;;;;;;;;10448083;28;20029;-83
2022/07/06 14:22:56;;;;;;;2.35;1.20;;;;;;;;;;10424147;28;20025;-83
2022/07/06 15:07:29;;;;;;;5.78;2.50;;;;;;;;;;10622740;28;20109;-86
2022/07/06 15:12:30;;;;;;;2.53;1.50;;;;;;;;;;10591628;28;20023;-85
2022/07/06 15:18:07;;;;;;;2.40;1.30;;;;;;;;;;10609455;28;20111;-87
2022/07/06 15:23:08;;;;;;;2.65;0.73;;;;;;;;;;10611890;28;20092;-85
2022/07/06 15:28:10;;;;;;;2.88;1.83;;;;;;;;;;10583468;28;20131;-85
2022/07/06 15:33:20;;;;;;;1.83;1.25;;;;;;;;;;10580769;28;20059;-86
2022/07/06 15:38:21;;;;;;;2.67;1.20;;;;;;;;;;10579140;28;20058;-86
2022/07/06 15:43:22;;;;;;;5.07;2.83;;;;;;;;;;10579370;28;20128;-86
2022/07/06 15:48:30;;;;;;;1.75;1.05;;;;;;;;;;10601916;28;20067;-87
2022/07/06 15:53:44;;;;;;;2.38;0.90;;;;;;;;;;10585527;28;20038;-85
2022/07/06 15:58:52;;;;;;;1.50;0.93;;;;;;;;;;10590913;28;20122;-86
2022/07/06 16:03:53;;;;;;;2.38;1.02;;;;;;;;;;10599250;28;20095;-84
2022/07/06 16:08:54;;;;;;;3.70;1.05;;;;;;;;;;10605316;28;20036;-83
2022/07/06 16:13:57;;;;;;;3.60;1.77;;;;;;;;;;10612411;28;20039;-84
2022/07/06 16:18:58;;;;;;;1.60;1.15;;;;;;;;;;10601929;28;20036;-82
2022/07/06 16:23:59;;;;;;;2.92;1.00;;;;;;;;;;10596809;28;20027;-81
2022/07/06 16:40:21;;;;;;;2.85;1.20;;;;;;;;;;10621215;28;19891;-86
